Tenerife Sur, Canary Islands

2. syyskuuta 2014 klo 07:41 (WEST) (GMT +0100)
Reina Sofia | Change Station
CLOSE
Current Station
Airport
Location: Tenerife Sur,
Korkeus: 253 ft
Lähimmät sääasemat

Kork 253 ft 28.05 °N, 16.56 °W | Updated 11 minutes ago

Partly Cloudy
Puolipilvistä
73 °F
Tuntuu kuin 73 °F
N
4
Tuuli Suunnaltaan vaihteleva Tuuli ilmansuunnasta Idän ja koillisen välinen

Tänään
Korkea -- | Matala -- °F
--% Sateen mahd.
Eilen
Korkea -- | Matala -- °F
Precip. -- tuumaa
7:45 AM 8:26 PM
Kasvava sirppi, 48% visible
Ilmanpaine 30.01 tuumaa
Näkyvyys 6.2 mailia
Pilviä Harvoja pilviä 1800 ft
Kastepiste 68 °F
Ilmankosteus 83%
Sademäärä 0.00 tuumaa
Lumensyvyys Ei saatavilla
UV 0 / 12
Pollen Ei saatavilla
Ilmanlaatu Ei saatavilla
Flu Activity Ei saatavilla
METAR GCTS 020630Z 07003KT 9999 FEW018 23/20 Q1016 NOSIG

More Conditions Fewer Conditions

Ilmanpaine 30.01 tuumaa
Näkyvyys 6.2 mailia
Pilviä Harvoja pilviä 1800 ft
Kastepiste 68 °F
Ilmankosteus 83%
Sademäärä 0.00 tuumaa
Lumensyvyys Ei saatavilla
UV 0 / 12
Pollen Ei saatavilla
Ilmanlaatu Ei saatavilla
Flu Activity Ei saatavilla
METAR GCTS 020630Z 07003KT 9999 FEW018 23/20 Q1016 NOSIG

More Conditions Fewer Conditions

10-Day Weather Forecast

Almanac

Tähtitiede

Sep. 02, 2014 Nousuaika Laskuaika
Valoisa aika 07:45 (WEST) 20:26 (WEST)
Porvarillinen hämärä 07:21 (WEST) 20:50 (WEST)
Nauttinen hämärä 06:53 (WEST) 21:18 (WEST)
Astronominen hämärä 06:24 (WEST) 21:46 (WEST)
Kuu 14:42 (WEST) 00:52 (WEST)
Näkyvän valon pituus 13h 28m
Päivän pituus
12h 41m
Tomorrow will be 1m 36s shorter.
Kasvava sirppi, 48% of the Moon is Illuminated
Tänään
Kasvava sirppi
syys 2
Ensimmäinen neljännes
syys 8
Täysikuu
syys 15
Viimeinen neljännes
syys 24
Uusi

Eilisen päivän ennätykset

Country Highs Country Lows

Community

WunderPhotos

Upload Photos

1,749,589 photos uploaded!

WunderBlogs® & News

Nearby

Lumensyvyys

Not available.

Maanjäristysaktiivisuus

Paikkakunta Distance Mag. Time & Date
No recent earthquake activity has been reported nearby.
Minimum magnitude displayed is 2.5.

Coastal Water Temperatures

Paikka Lämpötila
Ei ilmoittavia asemia

Lähimmät sääasemat